Lauritzen Yacht Harbor
Updated WEATHER every hour; Delta WATER and tide conditions; live TOWER CAM;
The FISHING report with PHOTOGRAPHS; harbor NEWS Items; before you get UNDERWAY ;
OTHER points of interest; WHO are we? WHAT can we provide? WHERE are we?

CRITICAL NEWS REGARING FRANKS TRACK AND LITTLE FRANKS TRACK

24 Hour Weather Archive

                   Temp   Wind   Hum   Dew   Wind                            
   Date    Time    Out   Chill   Out   Pt.  Speed    Hi    Dir   Rain   Bar  
 6/14/19  12:00a   64.9   61.5    --     --   7.0   17.0     N   0.00  29.920
 6/14/19  12:30a   63.5   59.9    --     --   7.0   16.0     N   0.00  29.926
 6/14/19   1:00a   62.3   58.5    --     --   7.0   15.0     N   0.00  29.921
 6/14/19   1:30a   61.0   58.2    --     --   6.0   14.0     N   0.00  29.919
 6/14/19   2:00a   60.5   57.7    --     --   6.0   13.0     N   0.00  29.923
 6/14/19   2:30a   59.9   58.2    --     --   5.0   13.0     N   0.00  29.925
 6/14/19   3:00a   58.7   58.7    --     --   3.0   13.0     N   0.00  29.938
 6/14/19   3:30a   58.3   58.3    --     --   4.0   10.0     N   0.00  29.944
 6/14/19   4:00a   57.9   57.9    --     --   3.0    9.0     N   0.00  29.940
 6/14/19   4:30a   57.9   57.9    --     --   3.0    9.0   WSW   0.00  29.947
 6/14/19   5:00a   57.7   57.7    --     --   2.0    6.0     N   0.00  29.955
 6/14/19   5:30a   57.0   57.0    --     --   3.0    8.0     N   0.00  29.954
 6/14/19   6:00a   57.1   57.1    --     --   4.0   10.0     N   0.00  29.967
 6/14/19   6:30a   58.0   58.0    --     --   3.0    6.0     N   0.00  29.983
 6/14/19   7:00a   60.3   60.3    --     --   3.0    8.0     N   0.00  29.991
 6/14/19   7:30a   61.0   61.0    --     --   4.0   10.0     N   0.00  29.992
 6/14/19   8:00a   63.2   63.2    --     --   4.0    9.0     N   0.00  30.000
 6/14/19   8:30a   63.5   62.0    --     --   5.0   10.0     N   0.00  30.008
 6/14/19   9:00a   64.9   63.5    --     --   5.0    9.0     N   0.00  30.005
 6/14/19   9:30a   67.0   65.7    --     --   5.0   12.0   NNW   0.00  30.000
 6/14/19  10:00a   68.1   65.1    --     --   7.0   14.0     N   0.00  29.999
 6/14/19  10:30a   69.0   64.4    --     --   9.0   19.0     N   0.00  29.995
 6/14/19  11:00a   70.2   65.9    --     --   9.0   18.0     N   0.00  29.993
 6/14/19  11:30a   71.9   67.9    --     --   9.0   16.0     N   0.00  29.986
 6/14/19  12:00p   72.3   69.1    --     --   8.0   17.0     N   0.00  29.983
 6/14/19  12:30p   73.0   69.3    --     --   9.0   19.0     N   0.00  29.980
 6/14/19   1:00p   74.4   70.3    --     --  10.0   18.0     N   0.00  29.976
 6/14/19   1:30p   75.2   71.0    --     --  11.0   22.0     N   0.00  29.976
 6/14/19   2:00p   75.4   71.3    --     --  11.0   23.0     N   0.00  29.962
 6/14/19   2:30p   75.5   70.8    --     --  13.0   24.0     N   0.00  29.952
 6/14/19   3:00p   76.3   71.8    --     --  13.0   23.0     N   0.00  29.944
 6/14/19   3:30p   77.0   72.7    --     --  13.0   23.0     N   0.00  29.932
 6/14/19   4:00p   77.5   73.4    --     --  13.0   23.0     N   0.00  29.929
 6/14/19   4:30p   79.4   76.1    --     --  12.0   23.0     N   0.00  29.922
 6/14/19   5:00p   81.4   79.0    --     --  10.0   20.0     N   0.00  29.921
 6/14/19   5:30p   83.6   82.0    --     --   9.0   18.0     N   0.00  29.916
 6/14/19   6:00p   84.0   82.5    --     --   9.0   20.0     N   0.00  29.913
 6/14/19   6:30p   82.0   80.1    --     --   9.0   22.0     N   0.00  29.917
 6/14/19   7:00p   80.1   77.8    --     --   9.0   19.0     N   0.00  29.919
 6/14/19   7:30p   78.0   75.8    --     --   8.0   18.0     N   0.00  29.924
 6/14/19   8:00p   76.0   73.4    --     --   8.0   20.0     N   0.00  29.927
 6/14/19   8:30p   72.3   69.8    --     --   7.0   20.0     N   0.00  29.941
 6/14/19   9:00p   68.1   66.8    --     --   5.0   12.0     N   0.00  29.948
 6/14/19   9:30p   66.3   64.9    --     --   5.0   12.0     N   0.00  29.960
 6/14/19  10:00p   67.0   63.9    --     --   7.0   16.0     N   0.00  29.970
 6/14/19  10:30p   66.2   64.8    --     --   5.0   11.0     N   0.00  29.970
 6/14/19  11:00p   64.2   64.2    --     --   1.0    9.0   WSW   0.00  29.968
 6/14/19  11:30p   60.4   60.4    --     --   1.0    4.0   WSW   0.00  29.973
 6/14/19  12:00p   59.5   59.5    --     --   1.0    5.0   WSW   0.00  29.967
 6/15/19  12:00a   59.5   59.5    --     --   1.0    5.0   WSW   0.00  29.967
 6/15/19  12:30a   60.7   60.7    --     --   2.0    8.0     N   0.00  29.973
 6/15/19   1:00a   61.2   61.2    --     --   2.0    7.0     N   0.00  29.973
 6/15/19   1:30a   60.5   60.5    --     --   2.0    6.0     N   0.00  29.973
 6/15/19   2:00a   59.1   59.1    --     --   2.0    7.0     N   0.00  29.977
 6/15/19   2:30a   58.1   58.1    --     --   2.0    6.0     N   0.00  29.979
 6/15/19   3:00a   58.1   58.1    --     --   2.0    5.0     N   0.00  29.975
 6/15/19   3:30a   56.8   56.8    --     --   1.0    5.0     N   0.00  29.975
 6/15/19   4:00a   56.8   56.8    --     --   3.0    9.0     N   0.00  29.979
 6/15/19   4:30a   55.8   55.8    --     --   2.0    6.0   WSW   0.00  29.982
 6/15/19   5:00a   55.5   55.5    --     --   3.0    9.0     N   0.00  29.989
 6/15/19   5:30a   55.4   55.4    --     --   2.0    6.0     N   0.00  29.992
 6/15/19   6:00a   54.5   54.5    --     --   1.0    5.0     W   0.00  30.002
 6/15/19   6:30a   56.6   56.6    --     --   1.0    4.0     W   0.00  30.003
 6/15/19   7:00a   59.7   59.7    --     --   2.0    6.0   WSW   0.00  30.014
 6/15/19   7:30a   62.2   62.2    --     --   2.0    6.0     W   0.00  30.011
 6/15/19   8:00a   68.2   68.2    --     --   0.0    4.0     W   0.00  30.022
 6/15/19   8:30a   68.3   68.3    --     --   2.0    9.0    NW   0.00  30.022
 6/15/19   9:00a   65.8   65.8    --     --   4.0    8.0     N   0.00  30.026
 6/15/19   9:30a   67.0   65.7    --     --   5.0   14.0   NNW   0.00  30.030
 6/15/19  10:00a   66.8   63.6    --     --   7.0   15.0     N   0.00  30.026
 6/15/19  10:30a   67.3   62.4    --     --   9.0   19.0     N   0.00  30.027
 6/15/19  11:00a   68.2   62.7    --     --  10.0   18.0     N   0.00  30.026
 6/15/19  11:30a   69.5   64.3    --     --  10.0   17.0     N   0.00  30.031
 6/15/19  12:00p   69.3   63.1    --     --  12.0   21.0     N   0.00  30.026
 6/15/19  12:30p   70.4   65.0    --     --  11.0   22.0     N   0.00  30.024
 6/15/19   1:00p   71.5   66.4    --     --  11.0   20.0     N   0.00  30.011
 6/15/19   1:30p   71.5   66.0    --     --  12.0   21.0     N   0.00  30.005
 6/15/19   2:00p   72.3   67.4    --     --  11.0   20.0     N   0.00  30.003
 6/15/19   2:30p   73.5   68.9    --     --  11.0   21.0     N   0.00  29.989
 6/15/19   3:00p   75.2   71.3    --     --  10.0   22.0     N   0.00  29.981
 6/15/19   3:30p   75.5   71.4    --     --  11.0   21.0     N   0.00  29.975
 6/15/19   4:00p   75.0   70.8    --     --  11.0   21.0     N   0.00  29.960
 6/15/19   4:30p   76.5   72.7    --     --  11.0   20.0     N   0.00  29.955
 6/15/19   5:00p   75.5   71.1    --     --  12.0   22.0     N   0.00  29.954
 6/15/19   5:30p   74.4   70.0    --     --  11.0   23.0     N   0.00  29.941
 6/15/19   6:00p   73.0   68.2    --     --  11.0   21.0     N   0.00  29.943
 6/15/19   6:30p   72.0   67.0    --     --  11.0   22.0     N   0.00  29.945
 6/15/19   7:00p   68.8   63.0    --     --  11.0   23.0     N   0.00  29.945
 6/15/19   7:30p   67.0   61.2    --     --  10.0   22.0    NW   0.00  29.944
 6/15/19   8:00p   66.0   62.7    --     --   7.0   17.0     N   0.00  29.947
 6/15/19   8:30p   63.3   60.7    --     --   6.0   13.0     N   0.00  29.957
 6/15/19   9:00p   59.7   56.8    --     --   6.0   13.0     N   0.00  29.956
 6/15/19   9:30p   58.3   54.0    --     --   7.0   16.0     N   0.00  29.964


Send questions or comments to:
Some of the material in this website is copyrighted © by Lauritzen Yacht Harbor and may not be used by others without our specific permission.
All rights are reserved. iPhone friendly. Viewed best with Mozilla Firefox